sensor_id;sensor_type;location;lat;lon;timestamp;P1;durP1;ratioP1;P2;durP2;ratioP2
9749;SDS011;4914;43.218;27.908;2022-07-10T00:00:27;8.70;;;6.55;;
9749;SDS011;4914;43.218;27.908;2022-07-10T00:02:54;8.48;;;6.28;;
9749;SDS011;4914;43.218;27.908;2022-07-10T00:05:23;8.00;;;5.57;;
9749;SDS011;4914;43.218;27.908;2022-07-10T00:07:51;10.75;;;5.57;;
9749;SDS011;4914;43.218;27.908;2022-07-10T00:10:19;9.73;;;5.88;;
9749;SDS011;4914;43.218;27.908;2022-07-10T00:12:47;8.80;;;5.30;;
9749;SDS011;4914;43.218;27.908;2022-07-10T00:15:15;11.63;;;5.53;;
9749;SDS011;4914;43.218;27.908;2022-07-10T00:17:42;5.43;;;4.93;;
9749;SDS011;4914;43.218;27.908;2022-07-10T00:20:10;5.93;;;5.35;;
9749;SDS011;4914;43.218;27.908;2022-07-10T00:22:39;6.68;;;5.20;;
9749;SDS011;4914;43.218;27.908;2022-07-10T00:25:09;6.65;;;5.18;;
9749;SDS011;4914;43.218;27.908;2022-07-10T00:27:37;5.65;;;5.03;;
9749;SDS011;4914;43.218;27.908;2022-07-10T00:30:04;7.13;;;5.15;;
9749;SDS011;4914;43.218;27.908;2022-07-10T00:32:32;7.47;;;5.20;;
9749;SDS011;4914;43.218;27.908;2022-07-10T00:34:59;6.03;;;5.00;;
9749;SDS011;4914;43.218;27.908;2022-07-10T00:37:27;5.25;;;4.75;;
9749;SDS011;4914;43.218;27.908;2022-07-10T00:39:55;7.25;;;5.32;;
9749;SDS011;4914;43.218;27.908;2022-07-10T00:42:22;11.80;;;5.82;;
9749;SDS011;4914;43.218;27.908;2022-07-10T00:44:49;12.88;;;5.60;;
9749;SDS011;4914;43.218;27.908;2022-07-10T00:47:16;7.10;;;5.05;;
9749;SDS011;4914;43.218;27.908;2022-07-10T00:49:44;5.95;;;5.40;;
9749;SDS011;4914;43.218;27.908;2022-07-10T00:52:12;7.50;;;5.35;;
9749;SDS011;4914;43.218;27.908;2022-07-10T00:54:42;8.25;;;5.50;;
9749;SDS011;4914;43.218;27.908;2022-07-10T00:57:12;7.70;;;5.43;;
9749;SDS011;4914;43.218;27.908;2022-07-10T00:59:40;8.23;;;5.50;;
9749;SDS011;4914;43.218;27.908;2022-07-10T01:02:08;8.00;;;5.38;;
9749;SDS011;4914;43.218;27.908;2022-07-10T01:04:35;6.95;;;5.32;;
9749;SDS011;4914;43.218;27.908;2022-07-10T01:07:02;12.45;;;5.82;;
9749;SDS011;4914;43.218;27.908;2022-07-10T01:09:30;10.80;;;5.47;;
9749;SDS011;4914;43.218;27.908;2022-07-10T01:11:59;7.95;;;5.30;;
9749;SDS011;4914;43.218;27.908;2022-07-10T01:14:29;6.47;;;5.38;;
9749;SDS011;4914;43.218;27.908;2022-07-10T01:16:57;10.00;;;6.32;;
9749;SDS011;4914;43.218;27.908;2022-07-10T01:19:24;11.63;;;5.85;;
9749;SDS011;4914;43.218;27.908;2022-07-10T01:21:52;7.60;;;5.80;;
9749;SDS011;4914;43.218;27.908;2022-07-10T01:24:19;9.00;;;5.95;;
9749;SDS011;4914;43.218;27.908;2022-07-10T01:26:46;8.35;;;5.90;;
9749;SDS011;4914;43.218;27.908;2022-07-10T01:29:13;12.10;;;6.28;;
9749;SDS011;4914;43.218;27.908;2022-07-10T01:31:40;7.78;;;5.82;;
9749;SDS011;4914;43.218;27.908;2022-07-10T01:34:08;11.63;;;5.90;;
9749;SDS011;4914;43.218;27.908;2022-07-10T01:36:35;8.00;;;5.80;;
9749;SDS011;4914;43.218;27.908;2022-07-10T01:39:05;7.43;;;5.88;;
9749;SDS011;4914;43.218;27.908;2022-07-10T01:41:32;6.60;;;5.93;;
9749;SDS011;4914;43.218;27.908;2022-07-10T01:44:00;7.55;;;6.13;;
9749;SDS011;4914;43.218;27.908;2022-07-10T01:46:27;8.38;;;6.07;;
9749;SDS011;4914;43.218;27.908;2022-07-10T01:48:54;13.77;;;6.00;;
9749;SDS011;4914;43.218;27.908;2022-07-10T01:51:21;10.52;;;6.10;;
9749;SDS011;4914;43.218;27.908;2022-07-10T01:53:48;10.55;;;5.85;;
9749;SDS011;4914;43.218;27.908;2022-07-10T01:56:16;8.30;;;6.07;;
9749;SDS011;4914;43.218;27.908;2022-07-10T01:58:43;6.60;;;6.00;;
9749;SDS011;4914;43.218;27.908;2022-07-10T02:01:10;6.97;;;5.90;;
9749;SDS011;4914;43.218;27.908;2022-07-10T02:03:38;9.82;;;6.00;;
9749;SDS011;4914;43.218;27.908;2022-07-10T02:06:22;6.80;;;6.10;;
9749;SDS011;4914;43.218;27.908;2022-07-10T02:08:49;9.88;;;6.13;;
9749;SDS011;4914;43.218;27.908;2022-07-10T02:11:17;7.60;;;6.00;;
9749;SDS011;4914;43.218;27.908;2022-07-10T02:13:44;6.68;;;6.07;;
9749;SDS011;4914;43.218;27.908;2022-07-10T02:16:11;6.50;;;5.90;;
9749;SDS011;4914;43.218;27.908;2022-07-10T02:18:38;7.18;;;5.95;;
9749;SDS011;4914;43.218;27.908;2022-07-10T02:21:05;6.97;;;5.90;;
9749;SDS011;4914;43.218;27.908;2022-07-10T02:23:32;8.65;;;6.20;;
9749;SDS011;4914;43.218;27.908;2022-07-10T02:26:01;6.65;;;6.07;;
9749;SDS011;4914;43.218;27.908;2022-07-10T02:28:29;7.05;;;6.35;;
9749;SDS011;4914;43.218;27.908;2022-07-10T02:30:56;6.70;;;6.10;;
9749;SDS011;4914;43.218;27.908;2022-07-10T02:33:23;6.93;;;6.28;;
9749;SDS011;4914;43.218;27.908;2022-07-10T02:35:50;6.90;;;6.30;;
9749;SDS011;4914;43.218;27.908;2022-07-10T02:38:17;8.15;;;6.75;;
9749;SDS011;4914;43.218;27.908;2022-07-10T02:40:44;7.10;;;6.15;;
9749;SDS011;4914;43.218;27.908;2022-07-10T02:43:11;7.80;;;6.30;;
9749;SDS011;4914;43.218;27.908;2022-07-10T02:45:39;8.40;;;6.30;;
9749;SDS011;4914;43.218;27.908;2022-07-10T02:48:06;6.93;;;6.20;;
9749;SDS011;4914;43.218;27.908;2022-07-10T02:50:33;9.80;;;6.20;;
9749;SDS011;4914;43.218;27.908;2022-07-10T02:52:59;6.90;;;6.15;;
9749;SDS011;4914;43.218;27.908;2022-07-10T02:55:27;6.72;;;6.13;;
9749;SDS011;4914;43.218;27.908;2022-07-10T02:57:56;7.88;;;5.95;;
9749;SDS011;4914;43.218;27.908;2022-07-10T03:00:23;6.90;;;6.30;;
9749;SDS011;4914;43.218;27.908;2022-07-10T03:02:52;8.68;;;6.25;;
9749;SDS011;4914;43.218;27.908;2022-07-10T03:05:19;6.68;;;6.03;;
9749;SDS011;4914;43.218;27.908;2022-07-10T03:07:46;6.93;;;6.20;;
9749;SDS011;4914;43.218;27.908;2022-07-10T03:10:13;6.80;;;5.88;;
9749;SDS011;4914;43.218;27.908;2022-07-10T03:12:39;7.40;;;5.90;;
9749;SDS011;4914;43.218;27.908;2022-07-10T03:15:07;9.63;;;5.85;;
9749;SDS011;4914;43.218;27.908;2022-07-10T03:17:34;6.30;;;5.75;;
9749;SDS011;4914;43.218;27.908;2022-07-10T03:20:03;6.30;;;5.80;;
9749;SDS011;4914;43.218;27.908;2022-07-10T03:22:30;10.00;;;6.20;;
9749;SDS011;4914;43.218;27.908;2022-07-10T03:24:57;10.52;;;5.90;;
9749;SDS011;4914;43.218;27.908;2022-07-10T03:27:24;7.13;;;5.78;;
9749;SDS011;4914;43.218;27.908;2022-07-10T03:29:51;7.13;;;5.90;;
9749;SDS011;4914;43.218;27.908;2022-07-10T03:32:18;14.00;;;6.22;;
9749;SDS011;4914;43.218;27.908;2022-07-10T03:34:45;6.78;;;5.65;;
9749;SDS011;4914;43.218;27.908;2022-07-10T03:37:13;13.23;;;6.25;;
9749;SDS011;4914;43.218;27.908;2022-07-10T03:39:40;6.50;;;5.90;;
9749;SDS011;4914;43.218;27.908;2022-07-10T03:42:07;11.30;;;6.65;;
9749;SDS011;4914;43.218;27.908;2022-07-10T03:44:34;11.38;;;6.78;;
9749;SDS011;4914;43.218;27.908;2022-07-10T03:47:01;7.75;;;6.00;;
9749;SDS011;4914;43.218;27.908;2022-07-10T03:49:27;6.85;;;5.80;;
9749;SDS011;4914;43.218;27.908;2022-07-10T03:51:58;6.70;;;6.10;;
9749;SDS011;4914;43.218;27.908;2022-07-10T03:54:27;6.03;;;5.57;;
9749;SDS011;4914;43.218;27.908;2022-07-10T03:56:54;7.75;;;6.00;;
9749;SDS011;4914;43.218;27.908;2022-07-10T03:59:39;10.52;;;6.07;;
9749;SDS011;4914;43.218;27.908;2022-07-10T04:02:06;6.97;;;6.28;;
9749;SDS011;4914;43.218;27.908;2022-07-10T04:04:32;7.88;;;5.97;;
9749;SDS011;4914;43.218;27.908;2022-07-10T04:06:59;8.55;;;6.10;;
9749;SDS011;4914;43.218;27.908;2022-07-10T04:09:28;6.75;;;6.10;;
9749;SDS011;4914;43.218;27.908;2022-07-10T04:11:55;6.50;;;5.88;;
9749;SDS011;4914;43.218;27.908;2022-07-10T04:14:21;8.32;;;5.82;;
9749;SDS011;4914;43.218;27.908;2022-07-10T04:16:48;6.10;;;5.47;;
9749;SDS011;4914;43.218;27.908;2022-07-10T04:19:15;7.00;;;5.60;;
9749;SDS011;4914;43.218;27.908;2022-07-10T04:21:42;6.28;;;5.75;;
9749;SDS011;4914;43.218;27.908;2022-07-10T04:24:09;11.82;;;5.75;;
9749;SDS011;4914;43.218;27.908;2022-07-10T04:26:37;12.13;;;6.35;;
9749;SDS011;4914;43.218;27.908;2022-07-10T04:29:04;6.00;;;5.40;;
9749;SDS011;4914;43.218;27.908;2022-07-10T04:31:31;8.90;;;7.05;;
9749;SDS011;4914;43.218;27.908;2022-07-10T04:33:57;6.00;;;5.50;;
9749;SDS011;4914;43.218;27.908;2022-07-10T04:36:24;8.25;;;5.60;;
9749;SDS011;4914;43.218;27.908;2022-07-10T04:38:51;6.05;;;5.50;;
9749;SDS011;4914;43.218;27.908;2022-07-10T04:41:18;8.38;;;5.72;;
9749;SDS011;4914;43.218;27.908;2022-07-10T04:43:46;6.03;;;5.50;;
9749;SDS011;4914;43.218;27.908;2022-07-10T04:46:13;7.47;;;5.65;;
9749;SDS011;4914;43.218;27.908;2022-07-10T04:48:40;5.82;;;5.32;;
9749;SDS011;4914;43.218;27.908;2022-07-10T04:51:07;8.27;;;5.47;;
9749;SDS011;4914;43.218;27.908;2022-07-10T04:53:33;8.18;;;7.47;;
9749;SDS011;4914;43.218;27.908;2022-07-10T04:56:00;6.13;;;5.50;;
9749;SDS011;4914;43.218;27.908;2022-07-10T04:58:28;8.93;;;5.90;;
9749;SDS011;4914;43.218;27.908;2022-07-10T05:00:56;11.88;;;9.77;;
9749;SDS011;4914;43.218;27.908;2022-07-10T05:03:23;6.25;;;5.65;;
9749;SDS011;4914;43.218;27.908;2022-07-10T05:05:50;6.82;;;5.30;;
9749;SDS011;4914;43.218;27.908;2022-07-10T05:08:17;6.00;;;5.40;;
9749;SDS011;4914;43.218;27.908;2022-07-10T05:10:43;5.72;;;5.15;;
9749;SDS011;4914;43.218;27.908;2022-07-10T05:13:11;6.18;;;5.60;;
9749;SDS011;4914;43.218;27.908;2022-07-10T05:15:38;8.00;;;6.85;;
9749;SDS011;4914;43.218;27.908;2022-07-10T05:18:06;8.43;;;6.10;;
9749;SDS011;4914;43.218;27.908;2022-07-10T05:20:34;6.97;;;5.40;;
9749;SDS011;4914;43.218;27.908;2022-07-10T05:23:02;6.97;;;5.80;;
9749;SDS011;4914;43.218;27.908;2022-07-10T05:25:29;7.90;;;5.53;;
9749;SDS011;4914;43.218;27.908;2022-07-10T05:27:57;9.20;;;6.07;;
9749;SDS011;4914;43.218;27.908;2022-07-10T05:30:24;8.05;;;5.65;;
9749;SDS011;4914;43.218;27.908;2022-07-10T05:32:51;6.00;;;5.40;;
9749;SDS011;4914;43.218;27.908;2022-07-10T05:35:19;6.05;;;5.43;;
9749;SDS011;4914;43.218;27.908;2022-07-10T05:37:46;9.07;;;7.03;;
9749;SDS011;4914;43.218;27.908;2022-07-10T05:40:12;7.55;;;5.68;;
9749;SDS011;4914;43.218;27.908;2022-07-10T05:42:39;5.65;;;5.25;;
9749;SDS011;4914;43.218;27.908;2022-07-10T05:45:07;9.13;;;5.30;;
9749;SDS011;4914;43.218;27.908;2022-07-10T05:47:34;8.13;;;5.97;;
9749;SDS011;4914;43.218;27.908;2022-07-10T05:50:01;7.18;;;5.72;;
9749;SDS011;4914;43.218;27.908;2022-07-10T05:52:29;8.50;;;5.65;;
9749;SDS011;4914;43.218;27.908;2022-07-10T05:54:57;7.30;;;5.20;;
9749;SDS011;4914;43.218;27.908;2022-07-10T05:57:24;7.75;;;5.20;;
9749;SDS011;4914;43.218;27.908;2022-07-10T05:59:51;6.82;;;5.47;;
9749;SDS011;4914;43.218;27.908;2022-07-10T06:02:18;5.95;;;5.40;;
9749;SDS011;4914;43.218;27.908;2022-07-10T06:04:46;7.53;;;5.40;;
9749;SDS011;4914;43.218;27.908;2022-07-10T06:07:13;7.55;;;5.47;;
9749;SDS011;4914;43.218;27.908;2022-07-10T06:09:41;8.80;;;5.50;;
9749;SDS011;4914;43.218;27.908;2022-07-10T06:12:08;7.60;;;6.40;;
9749;SDS011;4914;43.218;27.908;2022-07-10T06:14:35;10.70;;;8.18;;
9749;SDS011;4914;43.218;27.908;2022-07-10T06:17:02;6.20;;;5.70;;
9749;SDS011;4914;43.218;27.908;2022-07-10T06:19:29;6.13;;;5.57;;
9749;SDS011;4914;43.218;27.908;2022-07-10T06:21:56;5.55;;;5.05;;
9749;SDS011;4914;43.218;27.908;2022-07-10T06:24:42;10.63;;;6.10;;
9749;SDS011;4914;43.218;27.908;2022-07-10T06:27:09;12.90;;;7.22;;
9749;SDS011;4914;43.218;27.908;2022-07-10T06:29:36;8.43;;;5.75;;
9749;SDS011;4914;43.218;27.908;2022-07-10T06:32:04;7.10;;;5.53;;
9749;SDS011;4914;43.218;27.908;2022-07-10T06:34:31;6.50;;;5.85;;
9749;SDS011;4914;43.218;27.908;2022-07-10T06:36:58;7.40;;;5.40;;
9749;SDS011;4914;43.218;27.908;2022-07-10T06:39:25;6.95;;;5.40;;
9749;SDS011;4914;43.218;27.908;2022-07-10T06:41:54;5.93;;;5.40;;
9749;SDS011;4914;43.218;27.908;2022-07-10T06:44:21;8.00;;;5.30;;
9749;SDS011;4914;43.218;27.908;2022-07-10T06:46:48;7.68;;;6.95;;
9749;SDS011;4914;43.218;27.908;2022-07-10T06:49:28;5.72;;;4.93;;
9749;SDS011;4914;43.218;27.908;2022-07-10T06:51:55;5.28;;;4.78;;
9749;SDS011;4914;43.218;27.908;2022-07-10T06:54:22;7.10;;;5.13;;
9749;SDS011;4914;43.218;27.908;2022-07-10T06:56:49;6.32;;;5.10;;
9749;SDS011;4914;43.218;27.908;2022-07-10T06:59:17;8.05;;;5.30;;
9749;SDS011;4914;43.218;27.908;2022-07-10T07:01:44;12.80;;;11.35;;
9749;SDS011;4914;43.218;27.908;2022-07-10T07:04:11;11.43;;;10.07;;
9749;SDS011;4914;43.218;27.908;2022-07-10T07:06:38;6.35;;;4.90;;
9749;SDS011;4914;43.218;27.908;2022-07-10T07:09:05;6.78;;;5.68;;
9749;SDS011;4914;43.218;27.908;2022-07-10T07:11:32;8.82;;;6.35;;
9749;SDS011;4914;43.218;27.908;2022-07-10T07:13:59;24.95;;;8.45;;
9749;SDS011;4914;43.218;27.908;2022-07-10T07:16:27;13.25;;;11.45;;
9749;SDS011;4914;43.218;27.908;2022-07-10T07:19:03;15.77;;;12.95;;
9749;SDS011;4914;43.218;27.908;2022-07-10T07:21:31;18.52;;;16.52;;
9749;SDS011;4914;43.218;27.908;2022-07-10T07:24:15;10.88;;;9.75;;
9749;SDS011;4914;43.218;27.908;2022-07-10T07:26:43;14.05;;;12.52;;
9749;SDS011;4914;43.218;27.908;2022-07-10T07:29:12;14.95;;;6.50;;
9749;SDS011;4914;43.218;27.908;2022-07-10T07:31:40;12.65;;;10.70;;
9749;SDS011;4914;43.218;27.908;2022-07-10T07:34:07;9.60;;;6.32;;
9749;SDS011;4914;43.218;27.908;2022-07-10T07:36:34;8.40;;;7.30;;
9749;SDS011;4914;43.218;27.908;2022-07-10T07:39:01;8.77;;;7.75;;
9749;SDS011;4914;43.218;27.908;2022-07-10T07:41:28;6.20;;;5.35;;
9749;SDS011;4914;43.218;27.908;2022-07-10T07:43:55;9.52;;;7.35;;
9749;SDS011;4914;43.218;27.908;2022-07-10T07:46:22;8.35;;;7.53;;
9749;SDS011;4914;43.218;27.908;2022-07-10T07:48:50;8.40;;;7.30;;
9749;SDS011;4914;43.218;27.908;2022-07-10T07:51:17;5.75;;;4.68;;
9749;SDS011;4914;43.218;27.908;2022-07-10T07:53:46;11.10;;;7.63;;
9749;SDS011;4914;43.218;27.908;2022-07-10T07:56:12;8.35;;;7.55;;
9749;SDS011;4914;43.218;27.908;2022-07-10T07:58:39;5.15;;;4.70;;
9749;SDS011;4914;43.218;27.908;2022-07-10T08:01:06;9.90;;;8.90;;
9749;SDS011;4914;43.218;27.908;2022-07-10T08:03:33;6.32;;;5.20;;
9749;SDS011;4914;43.218;27.908;2022-07-10T08:06:02;12.00;;;6.90;;
9749;SDS011;4914;43.218;27.908;2022-07-10T08:08:29;7.65;;;4.75;;
9749;SDS011;4914;43.218;27.908;2022-07-10T08:10:55;6.82;;;6.05;;
9749;SDS011;4914;43.218;27.908;2022-07-10T08:13:22;10.15;;;7.15;;
9749;SDS011;4914;43.218;27.908;2022-07-10T08:15:49;7.13;;;6.43;;
9749;SDS011;4914;43.218;27.908;2022-07-10T08:18:16;7.13;;;6.43;;
9749;SDS011;4914;43.218;27.908;2022-07-10T08:20:43;7.60;;;5.03;;
9749;SDS011;4914;43.218;27.908;2022-07-10T08:23:11;8.40;;;5.97;;
9749;SDS011;4914;43.218;27.908;2022-07-10T08:25:38;9.07;;;5.25;;
9749;SDS011;4914;43.218;27.908;2022-07-10T08:28:05;6.30;;;4.93;;
9749;SDS011;4914;43.218;27.908;2022-07-10T08:30:32;5.90;;;5.40;;
9749;SDS011;4914;43.218;27.908;2022-07-10T08:32:59;7.95;;;5.07;;
9749;SDS011;4914;43.218;27.908;2022-07-10T08:35:26;5.47;;;4.97;;
9749;SDS011;4914;43.218;27.908;2022-07-10T08:37:53;5.50;;;5.00;;
9749;SDS011;4914;43.218;27.908;2022-07-10T08:40:22;5.13;;;4.70;;
9749;SDS011;4914;43.218;27.908;2022-07-10T08:42:49;5.10;;;4.63;;
9749;SDS011;4914;43.218;27.908;2022-07-10T08:45:16;10.52;;;5.18;;
9749;SDS011;4914;43.218;27.908;2022-07-10T08:47:42;4.80;;;4.40;;
9749;SDS011;4914;43.218;27.908;2022-07-10T08:50:15;13.85;;;5.03;;
9749;SDS011;4914;43.218;27.908;2022-07-10T08:52:47;6.60;;;4.75;;
9749;SDS011;4914;43.218;27.908;2022-07-10T08:55:22;12.82;;;5.25;;
9749;SDS011;4914;43.218;27.908;2022-07-10T08:57:50;12.95;;;5.22;;
9749;SDS011;4914;43.218;27.908;2022-07-10T09:00:17;12.57;;;4.70;;
9749;SDS011;4914;43.218;27.908;2022-07-10T09:02:44;5.18;;;4.60;;
9749;SDS011;4914;43.218;27.908;2022-07-10T09:05:11;10.15;;;4.82;;
9749;SDS011;4914;43.218;27.908;2022-07-10T09:07:39;6.32;;;4.72;;
9749;SDS011;4914;43.218;27.908;2022-07-10T09:10:09;5.30;;;4.80;;
9749;SDS011;4914;43.218;27.908;2022-07-10T09:12:51;6.30;;;5.35;;
9749;SDS011;4914;43.218;27.908;2022-07-10T09:15:20;6.03;;;5.53;;
9749;SDS011;4914;43.218;27.908;2022-07-10T09:17:49;8.88;;;5.07;;
9749;SDS011;4914;43.218;27.908;2022-07-10T09:20:28;8.20;;;6.25;;
9749;SDS011;4914;43.218;27.908;2022-07-10T09:22:59;6.93;;;4.75;;
9749;SDS011;4914;43.218;27.908;2022-07-10T09:25:36;4.93;;;4.50;;
9749;SDS011;4914;43.218;27.908;2022-07-10T09:28:04;6.10;;;5.15;;
9749;SDS011;4914;43.218;27.908;2022-07-10T09:30:34;6.18;;;4.47;;
9749;SDS011;4914;43.218;27.908;2022-07-10T09:33:18;5.43;;;4.53;;
9749;SDS011;4914;43.218;27.908;2022-07-10T09:35:55;12.18;;;8.55;;
9749;SDS011;4914;43.218;27.908;2022-07-10T09:38:51;8.32;;;4.63;;
9749;SDS011;4914;43.218;27.908;2022-07-10T09:41:21;9.93;;;8.38;;
9749;SDS011;4914;43.218;27.908;2022-07-10T09:43:51;8.57;;;4.40;;
9749;SDS011;4914;43.218;27.908;2022-07-10T09:46:20;5.85;;;4.30;;
9749;SDS011;4914;43.218;27.908;2022-07-10T09:48:48;7.22;;;4.00;;
9749;SDS011;4914;43.218;27.908;2022-07-10T09:51:26;6.18;;;4.30;;
9749;SDS011;4914;43.218;27.908;2022-07-10T09:53:56;5.20;;;4.68;;
9749;SDS011;4914;43.218;27.908;2022-07-10T09:56:26;26.42;;;4.72;;
9749;SDS011;4914;43.218;27.908;2022-07-10T09:59:00;8.25;;;4.22;;
9749;SDS011;4914;43.218;27.908;2022-07-10T10:01:27;6.25;;;3.90;;
9749;SDS011;4914;43.218;27.908;2022-07-10T10:03:55;9.10;;;6.75;;
9749;SDS011;4914;43.218;27.908;2022-07-10T10:06:27;8.32;;;4.35;;
9749;SDS011;4914;43.218;27.908;2022-07-10T10:08:57;8.93;;;4.00;;
9749;SDS011;4914;43.218;27.908;2022-07-10T10:11:30;10.90;;;4.10;;
9749;SDS011;4914;43.218;27.908;2022-07-10T10:14:02;6.50;;;4.50;;
9749;SDS011;4914;43.218;27.908;2022-07-10T10:16:29;5.57;;;3.80;;
9749;SDS011;4914;43.218;27.908;2022-07-10T10:18:57;5.30;;;3.60;;
9749;SDS011;4914;43.218;27.908;2022-07-10T10:21:42;9.05;;;4.45;;
9749;SDS011;4914;43.218;27.908;2022-07-10T10:24:10;5.55;;;4.35;;
9749;SDS011;4914;43.218;27.908;2022-07-10T10:26:37;7.65;;;3.72;;
9749;SDS011;4914;43.218;27.908;2022-07-10T10:29:06;6.93;;;3.70;;
9749;SDS011;4914;43.218;27.908;2022-07-10T10:31:36;11.02;;;3.85;;
9749;SDS011;4914;43.218;27.908;2022-07-10T10:34:05;7.18;;;3.40;;
9749;SDS011;4914;43.218;27.908;2022-07-10T10:36:45;6.22;;;3.50;;
9749;SDS011;4914;43.218;27.908;2022-07-10T10:39:13;6.75;;;3.60;;
9749;SDS011;4914;43.218;27.908;2022-07-10T10:41:42;5.30;;;3.58;;
9749;SDS011;4914;43.218;27.908;2022-07-10T10:44:20;5.95;;;3.70;;
9749;SDS011;4914;43.218;27.908;2022-07-10T10:47:04;9.00;;;3.80;;
9749;SDS011;4914;43.218;27.908;2022-07-10T10:52:15;10.35;;;4.43;;
9749;SDS011;4914;43.218;27.908;2022-07-10T10:57:38;6.50;;;3.53;;
9749;SDS011;4914;43.218;27.908;2022-07-10T11:00:30;8.20;;;3.80;;
9749;SDS011;4914;43.218;27.908;2022-07-10T11:03:11;7.60;;;3.95;;
9749;SDS011;4914;43.218;27.908;2022-07-10T11:05:43;7.35;;;4.15;;
9749;SDS011;4914;43.218;27.908;2022-07-10T11:08:12;5.68;;;3.65;;
9749;SDS011;4914;43.218;27.908;2022-07-10T11:10:41;11.55;;;3.90;;
9749;SDS011;4914;43.218;27.908;2022-07-10T11:13:09;6.45;;;4.38;;
9749;SDS011;4914;43.218;27.908;2022-07-10T11:15:39;5.93;;;3.80;;
9749;SDS011;4914;43.218;27.908;2022-07-10T11:18:07;7.53;;;3.80;;
9749;SDS011;4914;43.218;27.908;2022-07-10T11:20:37;8.18;;;4.55;;
9749;SDS011;4914;43.218;27.908;2022-07-10T11:23:08;7.53;;;3.78;;
9749;SDS011;4914;43.218;27.908;2022-07-10T11:25:45;5.28;;;3.83;;
9749;SDS011;4914;43.218;27.908;2022-07-10T11:28:27;5.80;;;4.35;;
9749;SDS011;4914;43.218;27.908;2022-07-10T11:31:05;7.40;;;3.40;;
9749;SDS011;4914;43.218;27.908;2022-07-10T11:33:38;7.30;;;5.95;;
9749;SDS011;4914;43.218;27.908;2022-07-10T11:36:09;5.25;;;4.75;;
9749;SDS011;4914;43.218;27.908;2022-07-10T11:38:38;4.32;;;3.92;;
9749;SDS011;4914;43.218;27.908;2022-07-10T11:41:11;5.90;;;3.60;;
9749;SDS011;4914;43.218;27.908;2022-07-10T11:43:45;10.13;;;4.05;;
9749;SDS011;4914;43.218;27.908;2022-07-10T11:46:14;8.80;;;4.18;;
9749;SDS011;4914;43.218;27.908;2022-07-10T11:48:41;6.78;;;4.88;;
9749;SDS011;4914;43.218;27.908;2022-07-10T11:51:21;5.07;;;3.70;;
9749;SDS011;4914;43.218;27.908;2022-07-10T11:53:57;6.70;;;4.13;;
9749;SDS011;4914;43.218;27.908;2022-07-10T11:56:28;5.57;;;3.70;;
9749;SDS011;4914;43.218;27.908;2022-07-10T11:58:58;6.07;;;3.85;;
9749;SDS011;4914;43.218;27.908;2022-07-10T12:01:28;5.50;;;3.92;;
9749;SDS011;4914;43.218;27.908;2022-07-10T12:04:00;3.90;;;3.58;;
9749;SDS011;4914;43.218;27.908;2022-07-10T12:06:28;10.10;;;4.13;;
9749;SDS011;4914;43.218;27.908;2022-07-10T12:08:56;10.38;;;3.88;;
9749;SDS011;4914;43.218;27.908;2022-07-10T12:11:28;6.72;;;3.83;;
9749;SDS011;4914;43.218;27.908;2022-07-10T12:14:08;6.00;;;3.80;;
9749;SDS011;4914;43.218;27.908;2022-07-10T12:16:38;4.45;;;4.00;;
9749;SDS011;4914;43.218;27.908;2022-07-10T12:19:05;5.22;;;4.00;;
9749;SDS011;4914;43.218;27.908;2022-07-10T12:21:33;4.40;;;4.00;;
9749;SDS011;4914;43.218;27.908;2022-07-10T12:24:00;4.30;;;4.00;;
9749;SDS011;4914;43.218;27.908;2022-07-10T12:26:31;6.40;;;3.88;;
9749;SDS011;4914;43.218;27.908;2022-07-10T12:28:59;9.40;;;4.75;;
9749;SDS011;4914;43.218;27.908;2022-07-10T12:31:27;5.18;;;4.43;;
9749;SDS011;4914;43.218;27.908;2022-07-10T12:33:58;7.13;;;4.30;;
9749;SDS011;4914;43.218;27.908;2022-07-10T12:39:10;5.07;;;4.03;;
9749;SDS011;4914;43.218;27.908;2022-07-10T12:41:57;6.07;;;4.10;;
9749;SDS011;4914;43.218;27.908;2022-07-10T12:44:38;5.40;;;3.83;;
9749;SDS011;4914;43.218;27.908;2022-07-10T12:47:06;5.03;;;3.80;;
9749;SDS011;4914;43.218;27.908;2022-07-10T12:49:50;9.65;;;3.72;;
9749;SDS011;4914;43.218;27.908;2022-07-10T12:52:22;4.93;;;3.70;;
9749;SDS011;4914;43.218;27.908;2022-07-10T12:55:04;5.50;;;3.50;;
9749;SDS011;4914;43.218;27.908;2022-07-10T12:57:44;10.02;;;3.80;;
9749;SDS011;4914;43.218;27.908;2022-07-10T13:00:12;4.95;;;4.30;;
9749;SDS011;4914;43.218;27.908;2022-07-10T13:02:40;7.43;;;4.18;;
9749;SDS011;4914;43.218;27.908;2022-07-10T13:05:09;6.70;;;4.10;;
9749;SDS011;4914;43.218;27.908;2022-07-10T13:07:36;6.18;;;3.97;;
9749;SDS011;4914;43.218;27.908;2022-07-10T13:10:04;8.50;;;3.83;;
9749;SDS011;4914;43.218;27.908;2022-07-10T13:12:32;10.18;;;4.60;;
9749;SDS011;4914;43.218;27.908;2022-07-10T13:14:59;6.43;;;4.50;;
9749;SDS011;4914;43.218;27.908;2022-07-10T13:17:26;4.20;;;3.80;;
9749;SDS011;4914;43.218;27.908;2022-07-10T13:19:53;8.02;;;4.35;;
9749;SDS011;4914;43.218;27.908;2022-07-10T13:22:22;9.35;;;4.15;;
9749;SDS011;4914;43.218;27.908;2022-07-10T13:24:49;5.18;;;4.55;;
9749;SDS011;4914;43.218;27.908;2022-07-10T13:27:16;7.80;;;3.88;;
9749;SDS011;4914;43.218;27.908;2022-07-10T13:29:45;4.10;;;3.70;;
9749;SDS011;4914;43.218;27.908;2022-07-10T13:32:13;6.80;;;4.07;;
9749;SDS011;4914;43.218;27.908;2022-07-10T13:34:40;4.93;;;4.18;;
9749;SDS011;4914;43.218;27.908;2022-07-10T13:37:07;5.93;;;4.00;;
9749;SDS011;4914;43.218;27.908;2022-07-10T13:39:35;6.15;;;3.80;;
9749;SDS011;4914;43.218;27.908;2022-07-10T13:42:02;7.30;;;3.90;;
9749;SDS011;4914;43.218;27.908;2022-07-10T13:44:29;5.65;;;4.05;;
9749;SDS011;4914;43.218;27.908;2022-07-10T13:46:56;19.05;;;5.47;;
9749;SDS011;4914;43.218;27.908;2022-07-10T13:49:23;7.72;;;6.45;;
9749;SDS011;4914;43.218;27.908;2022-07-10T13:51:51;8.50;;;5.05;;
9749;SDS011;4914;43.218;27.908;2022-07-10T13:54:17;8.75;;;6.00;;
9749;SDS011;4914;43.218;27.908;2022-07-10T13:56:46;8.65;;;4.93;;
9749;SDS011;4914;43.218;27.908;2022-07-10T13:59:13;4.20;;;3.85;;
9749;SDS011;4914;43.218;27.908;2022-07-10T14:01:40;5.88;;;4.30;;
9749;SDS011;4914;43.218;27.908;2022-07-10T14:04:06;22.42;;;5.00;;
9749;SDS011;4914;43.218;27.908;2022-07-10T14:06:33;10.25;;;8.25;;
9749;SDS011;4914;43.218;27.908;2022-07-10T14:09:00;7.97;;;4.85;;
9749;SDS011;4914;43.218;27.908;2022-07-10T14:11:27;5.93;;;4.57;;
9749;SDS011;4914;43.218;27.908;2022-07-10T14:13:55;13.25;;;8.52;;
9749;SDS011;4914;43.218;27.908;2022-07-10T14:16:23;6.72;;;5.20;;
9749;SDS011;4914;43.218;27.908;2022-07-10T14:18:50;6.57;;;4.50;;
9749;SDS011;4914;43.218;27.908;2022-07-10T14:21:17;10.38;;;5.40;;
9749;SDS011;4914;43.218;27.908;2022-07-10T14:23:43;5.47;;;4.97;;
9749;SDS011;4914;43.218;27.908;2022-07-10T14:26:10;9.55;;;4.05;;
9749;SDS011;4914;43.218;27.908;2022-07-10T14:28:38;8.15;;;4.28;;
9749;SDS011;4914;43.218;27.908;2022-07-10T14:31:06;4.95;;;4.05;;
9749;SDS011;4914;43.218;27.908;2022-07-10T14:33:34;7.65;;;4.63;;
9749;SDS011;4914;43.218;27.908;2022-07-10T14:36:02;6.10;;;4.22;;
9749;SDS011;4914;43.218;27.908;2022-07-10T14:38:30;7.78;;;4.60;;
9749;SDS011;4914;43.218;27.908;2022-07-10T14:40:56;7.03;;;4.60;;
9749;SDS011;4914;43.218;27.908;2022-07-10T14:43:24;8.43;;;4.80;;
9749;SDS011;4914;43.218;27.908;2022-07-10T14:45:51;11.10;;;4.80;;
9749;SDS011;4914;43.218;27.908;2022-07-10T14:48:19;8.07;;;5.60;;
9749;SDS011;4914;43.218;27.908;2022-07-10T14:50:46;10.55;;;5.20;;
9749;SDS011;4914;43.218;27.908;2022-07-10T14:53:13;8.93;;;5.00;;
9749;SDS011;4914;43.218;27.908;2022-07-10T14:55:40;9.27;;;4.80;;
9749;SDS011;4914;43.218;27.908;2022-07-10T14:58:07;10.93;;;4.82;;
9749;SDS011;4914;43.218;27.908;2022-07-10T15:00:34;6.65;;;4.70;;
9749;SDS011;4914;43.218;27.908;2022-07-10T15:03:01;10.82;;;5.63;;
9749;SDS011;4914;43.218;27.908;2022-07-10T15:05:30;6.85;;;4.75;;
9749;SDS011;4914;43.218;27.908;2022-07-10T15:07:58;7.60;;;5.00;;
9749;SDS011;4914;43.218;27.908;2022-07-10T15:10:25;17.85;;;6.07;;
9749;SDS011;4914;43.218;27.908;2022-07-10T15:12:52;10.07;;;5.30;;
9749;SDS011;4914;43.218;27.908;2022-07-10T15:15:19;9.30;;;4.95;;